createdAt,value
2018-11-22T00:00:34.704Z,22.75
2018-11-22T00:03:03.088Z,23.73
2018-11-22T00:05:31.488Z,23.12
2018-11-22T00:08:00.566Z,23.00
2018-11-22T00:10:29.463Z,22.15
2018-11-22T00:12:57.873Z,22.05
2018-11-22T00:15:26.727Z,25.25
2018-11-22T00:17:55.627Z,20.95
2018-11-22T00:20:24.019Z,25.02
2018-11-22T00:22:52.553Z,24.98
2018-11-22T00:25:20.931Z,25.15
2018-11-22T00:27:49.348Z,23.50
2018-11-22T00:30:25.217Z,24.92
2018-11-22T00:32:53.573Z,23.80
2018-11-22T00:35:22.183Z,23.75
2018-11-22T00:37:51.065Z,25.52
2018-11-22T00:40:20.964Z,23.92
2018-11-22T00:42:49.797Z,25.15
2018-11-22T00:45:19.586Z,25.08
2018-11-22T00:47:47.990Z,26.02
2018-11-22T00:50:17.290Z,26.55
2018-11-22T00:52:45.868Z,26.02
2018-11-22T00:55:16.191Z,24.12
2018-11-22T00:57:45.199Z,24.67
2018-11-22T01:00:18.865Z,26.15
2018-11-22T01:02:47.659Z,24.05
2018-11-22T01:05:17.198Z,26.55
2018-11-22T01:07:45.694Z,25.68
2018-11-22T01:10:18.534Z,26.85
2018-11-22T01:12:47.910Z,26.50
2018-11-22T01:15:16.515Z,27.15
2018-11-22T01:17:44.902Z,28.47
2018-11-22T01:20:15.156Z,26.02
2018-11-22T01:22:43.802Z,24.07
2018-11-22T01:25:13.313Z,26.62
2018-11-22T01:27:41.824Z,25.20
2018-11-22T01:30:14.993Z,28.00
2018-11-22T01:32:44.397Z,23.85
2018-11-22T01:35:13.716Z,24.32
2018-11-22T01:37:42.583Z,27.65
2018-11-22T01:40:13.113Z,26.60
2018-11-22T01:42:41.518Z,25.65
2018-11-22T01:45:11.109Z,25.48
2018-11-22T01:47:39.597Z,26.60
2018-11-22T01:50:09.843Z,26.82
2018-11-22T01:52:38.611Z,25.62
2018-11-22T01:55:08.423Z,28.73
2018-11-22T01:57:36.826Z,24.95
2018-11-22T02:00:10.090Z,28.80
2018-11-22T02:02:38.674Z,29.25
2018-11-22T02:05:09.333Z,27.80
2018-11-22T02:07:37.885Z,26.68
2018-11-22T02:10:07.926Z,30.15
2018-11-22T02:12:36.516Z,28.30
2018-11-22T02:15:06.728Z,27.93
2018-11-22T02:17:35.105Z,29.72
2018-11-22T02:20:03.832Z,28.38
2018-11-22T02:22:32.182Z,28.47
2018-11-22T02:25:00.554Z,28.15
2018-11-22T02:27:28.979Z,29.50
2018-11-22T12:17:50.173Z,29.57
2018-11-22T12:20:18.918Z,28.32
2018-11-22T12:22:48.630Z,26.52
2018-11-22T12:25:18.553Z,28.17
2018-11-22T12:27:48.259Z,28.95
2018-11-22T12:30:25.580Z,29.15
2018-11-22T12:33:00.272Z,27.87
2018-11-22T12:35:33.942Z,27.80
2018-11-22T12:38:07.885Z,27.55
2018-11-22T12:40:37.600Z,25.90
2018-11-22T12:43:05.056Z,30.05
2018-11-22T12:45:33.488Z,27.07
2018-11-22T12:48:01.940Z,28.35
2018-11-22T12:50:30.408Z,25.17
2018-11-22T12:52:58.777Z,28.15
2018-11-22T12:55:27.190Z,27.55
2018-11-22T12:57:55.555Z,28.23
2018-11-22T13:00:23.963Z,27.58
2018-11-22T13:02:52.356Z,27.62
2018-11-22T13:05:20.999Z,25.43
2018-11-22T13:07:49.392Z,27.77
2018-11-22T13:10:18.907Z,28.23
2018-11-22T13:12:48.295Z,25.90
2018-11-22T13:15:18.018Z,27.70
2018-11-22T13:17:46.594Z,27.75
2018-11-22T13:20:16.417Z,28.15
2018-11-22T13:22:44.801Z,27.80
2018-11-22T13:25:15.118Z,28.07
2018-11-22T13:27:43.753Z,29.40
2018-11-22T13:30:18.103Z,29.92
2018-11-22T13:32:47.313Z,26.60
2018-11-22T13:35:16.709Z,28.38
2018-11-22T13:37:46.323Z,28.70
2018-11-22T13:40:14.681Z,27.25
2018-11-22T13:42:44.141Z,29.00
2018-11-22T13:45:15.095Z,26.97
2018-11-22T13:47:44.430Z,26.55
2018-11-22T13:50:15.331Z,27.00
2018-11-22T13:52:44.704Z,25.05
2018-11-22T13:55:13.468Z,27.55
2018-11-22T13:57:41.860Z,28.52
2018-11-22T14:00:12.597Z,27.05
2018-11-22T14:02:41.471Z,28.38
2018-11-22T14:05:11.719Z,28.00
2018-11-22T14:07:38.584Z,28.05
2018-11-22T14:10:09.398Z,26.20
2018-11-22T14:12:37.877Z,26.57
2018-11-22T14:15:10.879Z,26.00
2018-11-22T14:17:39.461Z,25.57
2018-11-22T14:20:10.278Z,26.80
2018-11-22T14:22:39.192Z,29.57
2018-11-22T14:25:08.648Z,27.65
2018-11-22T14:27:37.617Z,27.90
2018-11-22T14:30:08.596Z,25.50
2018-11-22T14:32:37.411Z,27.42
2018-11-22T14:35:07.459Z,28.77
2018-11-22T14:37:36.174Z,29.52
2018-11-22T14:40:06.546Z,27.30
2018-11-22T14:42:35.073Z,28.05
2018-11-22T14:45:03.538Z,26.87
2018-11-22T14:47:31.965Z,28.42
2018-11-22T14:50:00.322Z,27.80
2018-11-22T14:52:28.734Z,28.23
2018-11-22T14:54:57.129Z,27.52
2018-11-22T14:57:25.489Z,26.60
2018-11-22T14:59:53.865Z,28.50
2018-11-22T15:02:22.432Z,28.75
2018-11-22T15:04:50.809Z,28.55
2018-11-22T15:07:19.189Z,29.30
2018-11-22T15:09:47.643Z,27.30
2018-11-22T15:12:16.273Z,28.40
2018-11-22T15:14:44.641Z,29.75
2018-11-22T15:17:13.046Z,29.00
2018-11-22T15:19:41.420Z,28.98
2018-11-22T15:22:09.784Z,28.90
2018-11-22T15:24:38.245Z,28.02
2018-11-22T15:27:06.602Z,27.05
2018-11-22T15:29:35.218Z,28.62
2018-11-22T15:32:03.967Z,24.65
2018-11-22T15:34:32.341Z,31.52
2018-11-22T15:37:00.745Z,29.35
2018-11-22T15:39:29.167Z,29.35
2018-11-22T15:41:57.529Z,31.15
2018-11-22T15:44:26.120Z,32.88
2018-11-22T15:46:54.547Z,26.85
2018-11-22T15:49:22.960Z,30.30
2018-11-22T15:51:51.376Z,30.40
2018-11-22T15:54:20.007Z,31.73
2018-11-22T15:56:48.380Z,27.52
2018-11-22T15:59:16.794Z,30.72
2018-11-22T16:01:45.207Z,30.23
2018-11-22T16:04:13.610Z,30.82
2018-11-22T16:06:42.000Z,30.52
2018-11-22T16:09:11.220Z,30.32
2018-11-22T16:11:40.165Z,28.42
2018-11-22T16:14:08.573Z,29.57
2018-11-22T16:16:37.029Z,31.10
2018-11-22T16:19:05.753Z,29.48
2018-11-22T16:21:34.127Z,29.15
2018-11-22T16:24:02.870Z,31.20
2018-11-22T16:26:31.283Z,30.12
2018-11-22T16:28:59.775Z,30.37
2018-11-22T16:31:28.183Z,29.90
2018-11-22T16:33:56.587Z,31.42
2018-11-22T16:36:24.959Z,31.07
2018-11-22T16:38:53.368Z,33.25
2018-11-22T16:41:21.765Z,34.60
2018-11-22T16:43:50.161Z,38.33
2018-11-22T16:46:18.589Z,31.93
2018-11-22T16:48:47.087Z,34.88
2018-11-22T16:51:15.784Z,34.08
2018-11-22T16:53:44.520Z,32.93
2018-11-22T16:56:12.896Z,33.70
2018-11-22T16:58:41.267Z,35.05
2018-11-22T17:01:09.675Z,35.05
2018-11-22T17:03:38.068Z,34.10
2018-11-22T17:06:06.575Z,35.13
2018-11-22T17:08:35.099Z,33.88
2018-11-22T17:11:03.526Z,34.13
2018-11-22T17:13:32.389Z,34.78
2018-11-22T17:16:00.852Z,39.58
2018-11-22T17:18:29.235Z,35.35
2018-11-22T17:20:57.919Z,32.75
2018-11-22T17:23:26.577Z,37.95
2018-11-22T17:25:55.232Z,35.52
2018-11-22T17:28:23.640Z,35.75
2018-11-22T17:30:52.205Z,36.28
2018-11-22T17:33:20.972Z,34.20
2018-11-22T17:35:49.334Z,35.85
2018-11-22T17:38:17.826Z,37.13
2018-11-22T17:40:47.811Z,36.35
2018-11-22T17:43:16.907Z,38.92
2018-11-22T17:45:46.789Z,34.20
2018-11-22T17:48:15.209Z,37.53
2018-11-22T17:50:44.740Z,34.20
2018-11-22T17:53:13.509Z,33.78
2018-11-22T17:55:42.054Z,40.83
2018-11-22T17:58:10.629Z,40.45
2018-11-22T18:00:42.493Z,40.73
2018-11-22T18:03:10.888Z,42.65
2018-11-22T18:05:39.435Z,36.95
2018-11-22T18:08:07.833Z,37.23
2018-11-22T18:10:37.978Z,38.10
2018-11-22T18:13:06.659Z,37.65
2018-11-22T18:15:41.376Z,37.80
2018-11-22T18:18:09.944Z,39.90
2018-11-22T18:20:38.659Z,38.70
2018-11-22T18:23:11.460Z,37.23
2018-11-22T18:25:35.782Z,38.08
2018-11-22T18:28:04.244Z,37.60
2018-11-22T18:30:33.750Z,35.88
2018-11-22T18:33:03.737Z,37.55
2018-11-22T18:35:32.175Z,34.45
2018-11-22T18:38:00.760Z,34.73
2018-11-22T18:40:30.822Z,35.20
2018-11-22T18:43:00.311Z,36.40
2018-11-22T18:45:47.103Z,34.90
2018-11-22T18:48:16.736Z,35.78
2018-11-22T18:50:46.944Z,39.25
2018-11-22T18:53:14.371Z,37.30
2018-11-22T18:55:42.794Z,36.63
2018-11-22T18:58:11.356Z,36.93
2018-11-22T19:00:41.288Z,36.00
2018-11-22T19:03:11.487Z,36.23
2018-11-22T19:05:39.874Z,37.05
2018-11-22T19:08:08.424Z,36.88
2018-11-22T19:10:38.206Z,37.83
2018-11-22T19:13:07.930Z,37.70
2018-11-22T19:15:38.628Z,35.55
2018-11-22T19:18:08.280Z,37.13
2018-11-22T19:20:38.169Z,35.65
2018-11-22T19:23:07.725Z,36.50
2018-11-22T19:25:36.430Z,36.42
2018-11-22T19:28:05.782Z,35.33
2018-11-22T19:30:37.943Z,33.80
2018-11-22T19:33:07.858Z,33.95
2018-11-22T19:35:38.292Z,33.48
2018-11-22T19:38:07.002Z,32.53
2018-11-22T19:40:36.899Z,32.67
2018-11-22T19:43:06.703Z,35.10
2018-11-22T19:45:37.560Z,35.78
2018-11-22T19:48:06.610Z,35.55
2018-11-22T19:50:35.051Z,36.58
2018-11-22T19:53:04.909Z,33.02
2018-11-22T19:55:34.337Z,37.48
2018-11-22T19:58:04.112Z,38.48
2018-11-22T20:00:32.555Z,36.95
2018-11-22T20:03:02.256Z,36.35
2018-11-22T20:05:31.866Z,35.83
2018-11-22T20:08:01.892Z,36.63
2018-11-22T20:10:34.463Z,36.73
2018-11-22T20:13:02.864Z,37.15
2018-11-22T20:15:32.065Z,37.98
2018-11-22T20:18:01.336Z,38.33
2018-11-22T20:20:29.729Z,36.53
2018-11-22T20:22:58.720Z,35.48
2018-11-22T20:25:27.603Z,36.40
2018-11-22T20:27:56.902Z,38.85
2018-11-22T20:30:28.182Z,39.20
2018-11-22T20:32:56.562Z,37.70
2018-11-22T20:35:25.534Z,37.58
2018-11-22T20:37:54.538Z,38.30
2018-11-22T20:40:24.337Z,38.28
2018-11-22T20:42:52.767Z,36.30
2018-11-22T20:45:22.498Z,39.35
2018-11-22T20:47:52.433Z,36.50
2018-11-22T20:50:22.163Z,38.67
2018-11-22T20:52:50.688Z,39.33
2018-11-22T20:55:22.061Z,37.60
2018-11-22T20:57:52.227Z,37.50
2018-11-22T21:00:22.119Z,40.70
2018-11-22T21:02:50.885Z,40.65
2018-11-22T21:05:20.065Z,37.60
2018-11-22T21:07:48.510Z,42.03
2018-11-22T21:10:19.127Z,42.70
2018-11-22T21:12:47.556Z,41.55
2018-11-22T21:15:20.462Z,45.98
2018-11-22T21:17:50.252Z,44.93
2018-11-22T21:20:20.127Z,43.45
2018-11-22T21:22:48.530Z,48.23
2018-11-22T21:25:18.185Z,47.83
2018-11-22T21:27:46.780Z,49.95
2018-11-22T21:30:20.019Z,48.30
2018-11-22T21:32:49.195Z,46.18
2018-11-22T21:35:18.299Z,47.17
2018-11-22T21:37:47.189Z,44.65
2018-11-22T21:40:16.377Z,45.48
2018-11-22T21:42:44.793Z,46.08
2018-11-22T21:45:15.560Z,49.20
2018-11-22T21:47:43.998Z,45.33
2018-11-22T21:50:13.906Z,44.42
2018-11-22T21:52:42.333Z,46.28
2018-11-22T21:55:13.394Z,41.90
2018-11-22T21:57:42.798Z,39.55
2018-11-22T22:00:18.943Z,42.00
2018-11-22T22:02:52.826Z,43.75
2018-11-22T22:05:17.361Z,41.70
2018-11-22T22:07:45.817Z,41.35
2018-11-22T22:10:14.195Z,40.70
2018-11-22T22:12:42.913Z,42.53
2018-11-22T22:15:14.088Z,43.65
2018-11-22T22:17:43.294Z,38.98
2018-11-22T22:20:14.100Z,44.90
2018-11-22T22:22:42.792Z,40.60
2018-11-22T22:25:13.397Z,40.98
2018-11-22T22:27:42.305Z,40.28
2018-11-22T22:30:14.394Z,43.30
2018-11-22T22:32:43.376Z,43.87
2018-11-22T22:35:11.789Z,40.83
2018-11-22T22:37:40.347Z,39.98
2018-11-22T22:40:11.687Z,41.73
2018-11-22T22:42:40.816Z,39.63
2018-11-22T22:45:09.384Z,39.10
2018-11-22T22:47:37.825Z,41.18
2018-11-22T22:50:09.117Z,38.10
2018-11-22T22:52:37.646Z,38.95
2018-11-22T22:55:07.216Z,40.67
2018-11-22T22:57:35.646Z,43.40
2018-11-22T23:00:04.969Z,41.45
2018-11-22T23:02:33.344Z,37.90
2018-11-22T23:05:01.740Z,42.05
2018-11-22T23:07:30.102Z,38.65
2018-11-22T23:09:58.461Z,38.67
2018-11-22T23:12:26.856Z,39.10
2018-11-22T23:14:55.222Z,38.20
2018-11-22T23:17:23.626Z,39.08
2018-11-22T23:19:52.490Z,39.88
2018-11-22T23:22:20.871Z,38.95
2018-11-22T23:24:49.262Z,36.75
2018-11-22T23:27:17.671Z,39.55
2018-11-22T23:29:46.060Z,34.50
2018-11-22T23:32:14.763Z,36.28
2018-11-22T23:34:43.153Z,38.30
2018-11-22T23:37:11.550Z,38.33
2018-11-22T23:39:40.547Z,38.85
2018-11-22T23:42:08.937Z,38.75
2018-11-22T23:44:37.331Z,36.80
2018-11-22T23:47:06.036Z,41.25
2018-11-22T23:49:34.448Z,38.50
2018-11-22T23:52:02.836Z,37.75
2018-11-22T23:54:31.214Z,39.73
2018-11-22T23:56:59.602Z,35.35
2018-11-22T23:59:28.202Z,36.53
